createdAt,value
2022-12-27T00:02:02.463Z,100.00
2022-12-27T00:06:13.214Z,100.00
2022-12-27T00:10:14.926Z,100.00
2022-12-27T00:14:16.324Z,100.00
2022-12-27T00:18:17.813Z,100.00
2022-12-27T00:22:19.417Z,100.00
2022-12-27T00:26:29.063Z,100.00
2022-12-27T00:30:31.353Z,100.00
2022-12-27T00:34:32.751Z,100.00
2022-12-27T00:38:34.180Z,100.00
2022-12-27T00:42:35.560Z,100.00
2022-12-27T00:46:37.095Z,100.00
2022-12-27T00:50:42.872Z,100.00
2022-12-27T00:54:44.192Z,100.00
2022-12-27T00:58:45.588Z,100.00
2022-12-27T01:02:47.499Z,100.00
2022-12-27T01:06:48.891Z,100.00
2022-12-27T01:10:50.203Z,100.00
2022-12-27T01:14:51.674Z,100.00
2022-12-27T01:18:53.930Z,100.00
2022-12-27T01:22:55.410Z,100.00
2022-12-27T01:26:56.815Z,100.00
2022-12-27T01:30:58.125Z,100.00
2022-12-27T01:34:59.673Z,100.00
2022-12-27T01:39:01.244Z,100.00
2022-12-27T01:43:02.794Z,100.00
2022-12-27T01:47:31.199Z,100.00
2022-12-27T01:51:32.597Z,100.00
2022-12-27T01:55:41.886Z,100.00
2022-12-27T01:59:43.340Z,100.00
2022-12-27T02:04:07.266Z,100.00
2022-12-27T02:08:36.333Z,100.00
2022-12-27T02:12:38.572Z,100.00
2022-12-27T02:16:39.999Z,100.00
2022-12-27T02:21:10.107Z,100.00
2022-12-27T02:25:29.938Z,100.00
2022-12-27T02:29:37.609Z,100.00
2022-12-27T02:33:46.859Z,100.00
2022-12-27T02:37:55.406Z,100.00
2022-12-27T02:42:16.017Z,100.00
2022-12-27T02:46:39.567Z,100.00
2022-12-27T02:51:29.187Z,100.00
2022-12-27T02:56:14.290Z,100.00
2022-12-27T03:00:37.247Z,100.00
2022-12-27T03:04:47.418Z,100.00
2022-12-27T03:09:08.965Z,100.00
2022-12-27T03:13:45.494Z,100.00
2022-12-27T03:17:55.270Z,100.00
2022-12-27T03:22:15.292Z,100.00
2022-12-27T03:26:18.645Z,100.00
2022-12-27T03:30:38.664Z,100.00
2022-12-27T03:34:47.347Z,100.00
2022-12-27T03:38:59.914Z,100.00
2022-12-27T03:43:11.483Z,100.00
2022-12-27T03:47:20.470Z,100.00
2022-12-27T03:51:25.532Z,100.00
2022-12-27T03:55:33.143Z,100.00
2022-12-27T03:59:35.283Z,100.00
2022-12-27T04:03:36.803Z,100.00
2022-12-27T04:07:38.379Z,100.00
2022-12-27T04:11:58.147Z,100.00
2022-12-27T04:16:18.402Z,100.00
2022-12-27T04:20:39.211Z,100.00
2022-12-27T04:24:59.408Z,100.00
2022-12-27T04:29:19.445Z,100.00
2022-12-27T04:33:39.512Z,100.00
2022-12-27T04:37:40.868Z,100.00
2022-12-27T04:42:01.051Z,100.00
2022-12-27T04:46:20.843Z,100.00
2022-12-27T04:50:45.492Z,100.00
2022-12-27T04:54:59.046Z,100.00
2022-12-27T04:59:19.273Z,100.00
2022-12-27T05:03:23.196Z,100.00
2022-12-27T05:07:43.489Z,100.00
2022-12-27T05:12:03.462Z,100.00
2022-12-27T05:16:05.474Z,100.00
2022-12-27T05:20:07.598Z,100.00
2022-12-27T05:24:27.687Z,100.00
2022-12-27T05:28:29.087Z,100.00
2022-12-27T05:32:30.719Z,100.00
2022-12-27T05:36:32.580Z,100.00
2022-12-27T05:40:34.433Z,100.00
2022-12-27T05:44:35.977Z,100.00
2022-12-27T05:48:37.600Z,100.00
2022-12-27T05:52:41.155Z,100.00
2022-12-27T05:56:42.844Z,100.00
2022-12-27T06:00:44.318Z,100.00
2022-12-27T06:04:45.879Z,100.00
2022-12-27T06:08:47.655Z,100.00
2022-12-27T06:12:49.048Z,100.00
2022-12-27T06:16:50.518Z,100.00
2022-12-27T06:20:51.902Z,100.00
2022-12-27T06:24:53.438Z,100.00
2022-12-27T06:28:56.588Z,100.00
2022-12-27T06:32:57.962Z,100.00
2022-12-27T06:36:59.514Z,100.00
2022-12-27T06:41:02.728Z,100.00
2022-12-27T06:45:09.429Z,100.00
2022-12-27T06:49:11.506Z,100.00
2022-12-27T06:53:12.831Z,100.00
2022-12-27T06:57:14.342Z,100.00
2022-12-27T07:01:21.467Z,100.00
2022-12-27T07:05:22.964Z,100.00
2022-12-27T07:09:24.394Z,100.00
2022-12-27T07:13:25.833Z,100.00
2022-12-27T07:17:27.198Z,100.00
2022-12-27T07:21:29.727Z,100.00
2022-12-27T07:25:32.129Z,100.00
2022-12-27T07:29:33.728Z,100.00
2022-12-27T07:33:36.710Z,100.00
2022-12-27T07:37:38.308Z,100.00
2022-12-27T07:41:39.762Z,100.00
2022-12-27T07:45:41.138Z,100.00
2022-12-27T07:49:42.567Z,100.00
2022-12-27T07:53:44.019Z,100.00
2022-12-27T07:57:45.382Z,100.00
2022-12-27T08:02:04.949Z,100.00
2022-12-27T08:06:08.427Z,100.00
2022-12-27T08:10:10.396Z,100.00
2022-12-27T08:14:11.781Z,100.00
2022-12-27T08:18:13.376Z,100.00
2022-12-27T08:22:15.424Z,100.00
2022-12-27T08:26:16.886Z,100.00
2022-12-27T08:30:18.490Z,100.00
2022-12-27T08:34:20.006Z,100.00
2022-12-27T08:38:21.356Z,100.00
2022-12-27T08:42:22.902Z,100.00
2022-12-27T08:46:24.277Z,100.00
2022-12-27T08:50:26.616Z,100.00
2022-12-27T08:54:28.097Z,100.00
2022-12-27T08:58:29.649Z,100.00
2022-12-27T09:02:31.113Z,100.00
2022-12-27T09:06:32.664Z,100.00
2022-12-27T09:10:34.274Z,100.00
2022-12-27T09:14:35.607Z,100.00
2022-12-27T09:18:38.316Z,100.00
2022-12-27T09:22:39.898Z,100.00
2022-12-27T09:26:41.681Z,100.00
2022-12-27T09:30:44.260Z,100.00
2022-12-27T09:34:45.644Z,100.00
2022-12-27T09:38:48.499Z,100.00
2022-12-27T09:43:19.120Z,100.00
2022-12-27T09:48:03.203Z,100.00
2022-12-27T09:52:22.386Z,100.00
2022-12-27T09:56:46.932Z,100.00
2022-12-27T10:00:52.247Z,100.00
2022-12-27T10:09:23.807Z,100.00
2022-12-27T10:13:35.695Z,100.00
2022-12-27T10:17:53.584Z,100.00
2022-12-27T10:22:23.310Z,100.00
2022-12-27T10:26:25.012Z,100.00
2022-12-27T10:30:28.226Z,100.00
2022-12-27T10:34:29.760Z,100.00
2022-12-27T10:38:35.387Z,100.00
2022-12-27T10:42:44.051Z,100.00
2022-12-27T10:46:51.718Z,99.87
2022-12-27T10:50:57.102Z,100.00
2022-12-27T10:54:58.596Z,99.30
2022-12-27T10:59:16.984Z,99.38
2022-12-27T11:03:18.953Z,98.64
2022-12-27T11:07:20.338Z,97.82
2022-12-27T11:11:24.798Z,96.59
2022-12-27T11:15:29.592Z,96.70
2022-12-27T11:19:30.977Z,96.14
2022-12-27T11:23:44.521Z,95.37
2022-12-27T11:27:48.915Z,94.98
2022-12-27T11:31:52.091Z,94.90
2022-12-27T11:35:56.217Z,94.87
2022-12-27T11:40:20.254Z,94.41
2022-12-27T11:44:32.631Z,94.47
2022-12-27T11:48:40.751Z,94.13
2022-12-27T11:52:53.220Z,93.75
2022-12-27T11:57:08.852Z,94.28
2022-12-27T12:01:32.246Z,93.67
2022-12-27T12:05:50.980Z,94.08
2022-12-27T12:10:21.363Z,94.28
2022-12-27T12:15:00.518Z,94.75
2022-12-27T12:19:17.155Z,94.56
2022-12-27T12:23:53.972Z,94.23
2022-12-27T12:28:47.358Z,94.52
2022-12-27T12:32:59.375Z,93.23
2022-12-27T12:37:15.424Z,93.46
2022-12-27T12:41:35.457Z,92.92
2022-12-27T12:46:01.104Z,92.05
2022-12-27T12:50:21.857Z,91.53
2022-12-27T12:54:48.682Z,91.26
2022-12-27T12:59:13.023Z,91.81
2022-12-27T13:03:39.914Z,91.22
2022-12-27T13:08:01.766Z,91.04
2022-12-27T13:12:16.926Z,92.09
2022-12-27T13:16:33.642Z,93.46
2022-12-27T13:20:55.748Z,94.52
2022-12-27T13:25:13.935Z,94.97
2022-12-27T13:29:55.470Z,94.66
2022-12-27T13:34:34.997Z,94.63
2022-12-27T13:38:48.642Z,93.70
2022-12-27T13:43:12.303Z,93.32
2022-12-27T13:47:42.781Z,93.68
2022-12-27T13:51:46.993Z,93.58
2022-12-27T13:56:52.049Z,93.17
2022-12-27T14:00:50.857Z,92.35
2022-12-27T14:05:26.028Z,92.73
2022-12-27T14:10:06.909Z,93.11
2022-12-27T14:14:12.444Z,93.11
2022-12-27T14:18:32.550Z,93.12
2022-12-27T14:22:54.463Z,93.19
2022-12-27T14:27:46.482Z,93.30
2022-12-27T14:32:08.393Z,93.65
2022-12-27T14:36:47.023Z,94.03
2022-12-27T14:40:57.523Z,94.23
2022-12-27T14:45:13.536Z,94.30
2022-12-27T14:49:33.665Z,95.24
2022-12-27T14:53:53.466Z,95.24
2022-12-27T14:57:54.871Z,95.15
2022-12-27T15:01:56.241Z,95.52
2022-12-27T15:06:04.090Z,95.45
2022-12-27T15:10:20.667Z,95.56
2022-12-27T15:14:46.661Z,96.48
2022-12-27T15:19:08.219Z,96.52
2022-12-27T15:23:31.127Z,96.90
2022-12-27T15:27:42.514Z,97.42
2022-12-27T15:31:59.509Z,97.61
2022-12-27T15:36:14.477Z,97.97
2022-12-27T15:40:34.512Z,98.38
2022-12-27T15:45:10.134Z,98.09
2022-12-27T15:49:46.179Z,98.83
2022-12-27T15:54:08.163Z,99.86
2022-12-27T15:58:20.768Z,99.59
2022-12-27T16:02:28.288Z,98.78
2022-12-27T16:06:35.788Z,98.79
2022-12-27T16:10:39.954Z,99.23
2022-12-27T16:14:43.127Z,98.99
2022-12-27T16:19:11.279Z,98.68
2022-12-27T16:23:12.640Z,99.05
2022-12-27T16:27:28.390Z,99.15
2022-12-27T16:31:31.963Z,99.55
2022-12-27T16:35:33.687Z,99.51
2022-12-27T16:39:54.423Z,99.94
2022-12-27T16:44:01.836Z,100.00
2022-12-27T16:48:47.532Z,100.00
2022-12-27T16:53:07.955Z,100.00
2022-12-27T16:57:24.818Z,100.00
2022-12-27T17:01:26.328Z,100.00
2022-12-27T17:05:36.921Z,100.00
2022-12-27T17:09:40.529Z,100.00
2022-12-27T17:13:57.055Z,100.00
2022-12-27T17:18:09.162Z,100.00
2022-12-27T17:22:15.191Z,100.00
2022-12-27T17:26:33.686Z,100.00
2022-12-27T17:31:04.464Z,100.00
2022-12-27T17:35:31.961Z,100.00
2022-12-27T17:39:52.959Z,100.00
2022-12-27T17:44:24.704Z,100.00
2022-12-27T17:48:30.495Z,100.00
2022-12-27T17:52:50.497Z,100.00
2022-12-27T17:57:19.271Z,100.00
2022-12-27T18:01:20.663Z,100.00
2022-12-27T18:05:30.788Z,100.00
2022-12-27T18:09:39.750Z,100.00
2022-12-27T18:13:50.422Z,100.00
2022-12-27T18:17:58.025Z,100.00
2022-12-27T18:22:01.497Z,100.00
2022-12-27T18:26:13.219Z,100.00
2022-12-27T18:30:15.265Z,100.00
2022-12-27T18:34:33.578Z,100.00
2022-12-27T18:38:40.115Z,100.00
2022-12-27T18:42:44.654Z,100.00
2022-12-27T18:46:50.041Z,100.00
2022-12-27T18:50:53.578Z,100.00
2022-12-27T18:54:55.359Z,100.00
2022-12-27T18:59:16.521Z,100.00
2022-12-27T19:03:20.442Z,100.00
2022-12-27T19:07:22.068Z,100.00
2022-12-27T19:11:29.345Z,100.00
2022-12-27T19:15:43.250Z,100.00
2022-12-27T19:19:51.303Z,100.00
2022-12-27T19:23:52.929Z,100.00
2022-12-27T19:28:09.656Z,100.00
2022-12-27T19:32:11.090Z,100.00
2022-12-27T19:36:13.506Z,100.00
2022-12-27T19:40:15.375Z,100.00
2022-12-27T19:44:17.210Z,100.00
2022-12-27T19:48:18.853Z,100.00
2022-12-27T19:52:26.676Z,100.00
2022-12-27T19:56:28.244Z,100.00
2022-12-27T20:00:29.738Z,100.00
2022-12-27T20:04:31.181Z,100.00
2022-12-27T20:08:36.833Z,100.00
2022-12-27T20:12:38.227Z,100.00
2022-12-27T20:16:40.243Z,100.00
2022-12-27T20:20:42.501Z,100.00
2022-12-27T20:24:44.632Z,100.00
2022-12-27T20:28:46.263Z,100.00
2022-12-27T20:32:47.769Z,100.00
2022-12-27T20:36:49.088Z,100.00
2022-12-27T20:40:50.790Z,100.00
2022-12-27T20:44:52.136Z,100.00
2022-12-27T20:48:54.485Z,100.00
2022-12-27T20:52:56.125Z,100.00
2022-12-27T20:56:57.460Z,100.00
2022-12-27T21:01:15.485Z,100.00
2022-12-27T21:05:17.128Z,100.00
2022-12-27T21:09:18.962Z,100.00
2022-12-27T21:13:20.322Z,100.00
2022-12-27T21:17:22.372Z,100.00
2022-12-27T21:21:28.496Z,100.00
2022-12-27T21:25:30.322Z,100.00
2022-12-27T21:29:31.758Z,100.00
2022-12-27T21:33:33.850Z,100.00
2022-12-27T21:37:35.542Z,100.00
2022-12-27T21:41:39.430Z,100.00
2022-12-27T21:45:40.909Z,100.00
2022-12-27T21:49:42.295Z,100.00
2022-12-27T21:53:44.359Z,100.00
2022-12-27T21:57:45.768Z,100.00
2022-12-27T22:01:50.316Z,100.00
2022-12-27T22:05:53.031Z,100.00
2022-12-27T22:09:54.367Z,100.00
2022-12-27T22:13:56.585Z,100.00
2022-12-27T22:17:58.195Z,100.00
2022-12-27T22:21:59.658Z,100.00
2022-12-27T22:26:01.388Z,100.00
2022-12-27T22:30:04.694Z,100.00
2022-12-27T22:34:06.157Z,100.00
2022-12-27T22:38:07.579Z,100.00
2022-12-27T22:42:09.297Z,100.00
2022-12-27T22:46:12.517Z,100.00
2022-12-27T22:50:14.085Z,100.00
2022-12-27T22:54:15.465Z,100.00
2022-12-27T22:58:17.039Z,100.00
2022-12-27T23:02:18.513Z,100.00
2022-12-27T23:06:21.018Z,100.00
2022-12-27T23:10:22.564Z,100.00
2022-12-27T23:14:23.983Z,100.00
2022-12-27T23:18:26.203Z,100.00
2022-12-27T23:22:27.555Z,100.00
2022-12-27T23:26:29.032Z,100.00
2022-12-27T23:30:30.466Z,100.00
2022-12-27T23:34:31.882Z,100.00
2022-12-27T23:38:33.450Z,100.00
2022-12-27T23:42:34.790Z,100.00
2022-12-27T23:46:36.270Z,100.00
2022-12-27T23:50:37.732Z,100.00
2022-12-27T23:54:39.064Z,100.00
2022-12-27T23:58:40.778Z,100.00
